createdAt,value
2019-03-31T00:01:44.783Z,102122.22
2019-03-31T00:04:12.822Z,102120.05
2019-03-31T00:06:40.893Z,102119.62
2019-03-31T00:09:08.948Z,102122.25
2019-03-31T00:11:37.001Z,102117.43
2019-03-31T00:14:05.076Z,102123.58
2019-03-31T00:16:33.117Z,102132.77
2019-03-31T00:19:01.163Z,102130.98
2019-03-31T00:21:29.357Z,102134.50
2019-03-31T00:23:57.391Z,102136.24
2019-03-31T00:26:25.412Z,102138.48
2019-03-31T00:28:53.450Z,102137.17
2019-03-31T00:31:22.640Z,102132.77
2019-03-31T00:33:50.966Z,102132.34
2019-03-31T00:36:19.028Z,102138.91
2019-03-31T00:38:47.080Z,102135.86
2019-03-31T00:41:15.124Z,102136.29
2019-03-31T00:43:43.168Z,102136.29
2019-03-31T00:46:11.179Z,102130.61
2019-03-31T00:48:39.261Z,102136.29
2019-03-31T00:51:07.308Z,102139.80
2019-03-31T00:53:35.359Z,102131.92
2019-03-31T00:56:03.439Z,102136.28
2019-03-31T00:58:31.484Z,102134.09
2019-03-31T01:01:17.860Z,102135.86
2019-03-31T01:03:45.891Z,102133.23
2019-03-31T01:06:14.462Z,102133.66
2019-03-31T01:08:42.442Z,102141.11
2019-03-31T01:11:14.029Z,102140.23
2019-03-31T01:13:42.648Z,102142.43
2019-03-31T01:16:12.666Z,102142.86
2019-03-31T01:18:40.871Z,102135.44
2019-03-31T01:21:08.930Z,102136.33
2019-03-31T01:23:37.027Z,102136.33
2019-03-31T01:26:05.191Z,102139.81
2019-03-31T01:28:33.314Z,102135.87
2019-03-31T01:31:01.719Z,102138.92
2019-03-31T01:33:30.059Z,102141.55
2019-03-31T01:35:58.090Z,102144.63
2019-03-31T01:38:26.121Z,102143.75
2019-03-31T01:40:54.129Z,102139.81
2019-03-31T01:43:22.204Z,102144.20
2019-03-31T01:45:50.255Z,102144.64
2019-03-31T01:48:18.292Z,102143.75
2019-03-31T01:50:46.330Z,102146.84
2019-03-31T01:53:14.415Z,102136.73
2019-03-31T01:55:42.432Z,102144.18
2019-03-31T01:58:10.455Z,102149.00
2019-03-31T02:00:48.216Z,102142.48
2019-03-31T02:03:16.230Z,102149.01
2019-03-31T02:05:44.364Z,102149.04
2019-03-31T02:08:12.496Z,102153.83
2019-03-31T02:10:40.513Z,102154.69
2019-03-31T02:13:08.556Z,102153.41
2019-03-31T02:15:36.724Z,102155.60
2019-03-31T02:18:04.834Z,102153.37
2019-03-31T02:20:32.858Z,102159.05
2019-03-31T02:23:00.924Z,102170.01
2019-03-31T02:25:28.960Z,102164.33
2019-03-31T02:27:57.056Z,102166.96
2019-03-31T02:30:25.083Z,102169.59
2019-03-31T02:32:53.155Z,102170.44
2019-03-31T02:35:21.178Z,102172.21
2019-03-31T02:37:49.224Z,102170.91
2019-03-31T02:40:17.274Z,102175.69
2019-03-31T02:42:45.369Z,102173.95
2019-03-31T02:45:13.408Z,102176.15
2019-03-31T02:47:41.440Z,102185.80
2019-03-31T02:50:11.368Z,102184.45
2019-03-31T02:52:39.498Z,102183.60
2019-03-31T02:55:07.538Z,102189.70
2019-03-31T02:57:35.560Z,102190.17
2019-03-31T03:00:03.730Z,102190.59
2019-03-31T03:02:41.434Z,102199.36
2019-03-31T03:05:17.747Z,102197.61
2019-03-31T03:07:33.018Z,102198.47
2019-03-31T03:10:01.038Z,102204.60
2019-03-31T03:12:29.996Z,102205.03
2019-03-31T03:14:58.046Z,102201.55
2019-03-31T03:17:26.063Z,102207.23
2019-03-31T03:19:54.156Z,102208.97
2019-03-31T03:22:22.177Z,102206.37
2019-03-31T03:24:50.398Z,102215.10
2019-03-31T03:27:18.423Z,102209.00
2019-03-31T03:29:46.483Z,102212.05
2019-03-31T03:32:14.634Z,102205.52
2019-03-31T03:34:42.642Z,102215.98
2019-03-31T03:37:10.885Z,102219.50
2019-03-31T03:39:38.917Z,102218.19
2019-03-31T03:42:06.930Z,102229.57
2019-03-31T03:44:34.970Z,102223.89
2019-03-31T03:47:03.006Z,102226.95
2019-03-31T03:49:31.095Z,102230.88
2019-03-31T03:51:59.142Z,102229.59
2019-03-31T03:54:27.197Z,102230.02
2019-03-31T03:56:55.260Z,102228.71
2019-03-31T03:59:23.291Z,102234.84
2019-03-31T04:01:51.437Z,102232.64
2019-03-31T04:04:19.482Z,102241.41
2019-03-31T04:06:47.500Z,102242.72
2019-03-31T04:09:15.725Z,102252.76
2019-03-31T04:11:43.817Z,102252.33
2019-03-31T04:14:11.840Z,102251.47
2019-03-31T04:16:39.894Z,102254.98
2019-03-31T04:19:07.915Z,102258.91
2019-03-31T04:21:36.118Z,102261.53
2019-03-31T04:24:04.154Z,102267.23
2019-03-31T04:26:32.177Z,102268.98
2019-03-31T04:29:00.250Z,102270.71
2019-03-31T04:31:28.301Z,102274.64
2019-03-31T04:33:56.432Z,102278.58
2019-03-31T04:36:24.481Z,102283.41
2019-03-31T04:38:52.574Z,102276.39
2019-03-31T04:41:20.597Z,102284.27
2019-03-31T04:43:48.620Z,102290.83
2019-03-31T04:46:16.705Z,102292.13
2019-03-31T04:48:44.728Z,102296.95
2019-03-31T04:51:12.814Z,102303.09
2019-03-31T04:53:40.869Z,102294.76
2019-03-31T04:56:08.874Z,102303.95
2019-03-31T04:58:36.942Z,102305.69
2019-03-31T05:01:04.955Z,102306.11
2019-03-31T05:03:33.145Z,102307.89
2019-03-31T05:06:01.185Z,102305.70
2019-03-31T05:08:29.217Z,102316.20
2019-03-31T05:10:57.299Z,102318.36
2019-03-31T05:13:25.313Z,102318.36
2019-03-31T05:15:53.330Z,102316.17
2019-03-31T05:18:21.379Z,102315.31
2019-03-31T05:20:49.382Z,102318.82
2019-03-31T05:23:17.476Z,102321.41
2019-03-31T05:25:45.510Z,102328.87
2019-03-31T05:28:13.507Z,102332.80
2019-03-31T05:30:41.575Z,102339.79
2019-03-31T05:33:09.588Z,102347.67
2019-03-31T05:35:37.739Z,102347.25
2019-03-31T05:38:05.778Z,102350.30
2019-03-31T05:40:33.796Z,102351.62
2019-03-31T05:43:01.868Z,102354.67
2019-03-31T05:45:29.896Z,102363.86
2019-03-31T05:47:58.075Z,102368.69
2019-03-31T05:50:26.102Z,102366.49
2019-03-31T05:52:54.227Z,102369.12
2019-03-31T05:55:22.336Z,102364.72
2019-03-31T05:57:50.336Z,102374.38
2019-03-31T06:00:28.833Z,102381.79
2019-03-31T06:02:56.849Z,102385.30
2019-03-31T06:05:24.951Z,102390.98
2019-03-31T06:07:52.983Z,102390.55
2019-03-31T06:10:21.089Z,102394.92
2019-03-31T06:12:49.111Z,102395.82
2019-03-31T06:15:17.170Z,102399.29
2019-03-31T06:17:45.271Z,102399.78
2019-03-31T06:20:13.289Z,102402.39
2019-03-31T06:22:41.750Z,102404.13
2019-03-31T06:25:09.790Z,102405.02
2019-03-31T06:27:37.976Z,102409.84
2019-03-31T06:30:06.008Z,102412.47
2019-03-31T06:32:34.075Z,102412.04
2019-03-31T06:35:03.247Z,102403.68
2019-03-31T06:37:31.287Z,102419.89
2019-03-31T06:39:59.335Z,102428.65
2019-03-31T06:42:27.370Z,102433.02
2019-03-31T06:44:55.441Z,102431.29
2019-03-31T06:47:23.463Z,102432.16
2019-03-31T06:49:51.480Z,102438.73
2019-03-31T06:52:19.583Z,102441.33
2019-03-31T06:54:47.636Z,102448.78
2019-03-31T06:57:15.667Z,102448.77
2019-03-31T06:59:43.713Z,102449.66
2019-03-31T07:02:11.758Z,102456.66
2019-03-31T07:04:39.816Z,102459.28
2019-03-31T07:07:07.898Z,102472.84
2019-03-31T07:09:35.939Z,102479.88
2019-03-31T07:12:03.974Z,102472.87
2019-03-31T07:14:32.065Z,102483.35
2019-03-31T07:17:00.057Z,102482.50
2019-03-31T07:19:28.079Z,102483.81
2019-03-31T07:21:56.148Z,102485.98
2019-03-31T07:24:24.179Z,102489.50
2019-03-31T07:26:52.264Z,102497.80
2019-03-31T07:29:20.269Z,102498.25
2019-03-31T07:31:48.288Z,102501.73
2019-03-31T07:34:16.325Z,102508.30
2019-03-31T07:36:44.331Z,102507.00
2019-03-31T07:39:12.632Z,102514.45
2019-03-31T07:41:40.847Z,102517.08
2019-03-31T07:44:08.918Z,102521.45
2019-03-31T07:46:36.982Z,102537.64
2019-03-31T07:49:05.041Z,102538.09
2019-03-31T07:51:33.098Z,102538.52
2019-03-31T07:54:01.122Z,102542.05
2019-03-31T07:56:29.202Z,102541.15
2019-03-31T07:58:57.232Z,102544.20
2019-03-31T08:01:25.324Z,102551.23
2019-03-31T08:03:53.407Z,102547.30
2019-03-31T08:06:21.442Z,102552.11
2019-03-31T08:08:49.498Z,102560.84
2019-03-31T08:11:17.596Z,102560.42
2019-03-31T08:13:45.704Z,102559.98
2019-03-31T08:16:13.710Z,102565.25
2019-03-31T08:18:41.839Z,102563.05
2019-03-31T08:21:09.905Z,102562.16
2019-03-31T08:23:37.924Z,102560.00
2019-03-31T08:26:05.979Z,102567.86
2019-03-31T08:28:34.079Z,102564.80
2019-03-31T08:31:02.125Z,102571.39
2019-03-31T08:33:30.167Z,102577.95
2019-03-31T08:35:58.233Z,102581.02
2019-03-31T08:38:26.260Z,102587.16
2019-03-31T08:40:54.323Z,102588.45
2019-03-31T08:43:22.366Z,102594.14
2019-03-31T08:45:50.411Z,102591.97
2019-03-31T08:48:18.427Z,102589.34
2019-03-31T08:50:46.468Z,102595.91
2019-03-31T08:53:14.551Z,102591.52
2019-03-31T08:55:42.756Z,102599.41
2019-03-31T08:58:10.772Z,102610.35
2019-03-31T09:01:04.147Z,102613.44
2019-03-31T09:03:32.165Z,102614.30
2019-03-31T09:06:02.299Z,102623.94
2019-03-31T09:08:30.193Z,102627.02
2019-03-31T09:10:58.209Z,102632.71
2019-03-31T09:13:26.249Z,102627.88
2019-03-31T09:15:54.437Z,102631.39
2019-03-31T09:18:22.503Z,102631.83
2019-03-31T09:20:50.519Z,102628.34
2019-03-31T09:23:18.606Z,102622.18
2019-03-31T09:25:47.776Z,102627.93
2019-03-31T09:28:16.131Z,102618.69
2019-03-31T09:30:44.161Z,102617.39
2019-03-31T09:33:12.208Z,102614.77
2019-03-31T09:35:40.242Z,102620.91
2019-03-31T09:38:08.272Z,102626.59
2019-03-31T09:40:36.441Z,102632.31
2019-03-31T09:43:04.595Z,102628.77
2019-03-31T09:45:32.711Z,102629.67
2019-03-31T09:48:00.771Z,102636.24
2019-03-31T09:50:28.819Z,102630.53
2019-03-31T09:52:56.851Z,102631.39
2019-03-31T09:55:25.022Z,102630.08
2019-03-31T09:57:53.094Z,102630.11
2019-03-31T10:00:43.545Z,102629.67
2019-03-31T10:03:11.594Z,102631.41
2019-03-31T10:05:39.611Z,102626.60
2019-03-31T10:08:07.682Z,102636.23
2019-03-31T10:10:35.708Z,102638.44
2019-03-31T10:13:03.750Z,102627.45
2019-03-31T10:15:31.945Z,102641.48
2019-03-31T10:17:59.977Z,102636.66
2019-03-31T10:20:31.295Z,102633.58
2019-03-31T10:22:57.929Z,102634.02
2019-03-31T10:25:26.015Z,102638.81
2019-03-31T10:27:54.118Z,102635.75
2019-03-31T10:30:30.683Z,102636.20
2019-03-31T10:32:58.701Z,102641.47
2019-03-31T10:35:26.760Z,102644.52
2019-03-31T10:37:54.805Z,102643.22
2019-03-31T10:40:22.851Z,102649.80
2019-03-31T10:42:50.917Z,102644.52
2019-03-31T10:45:18.950Z,102650.65
2019-03-31T10:47:46.986Z,102650.66
2019-03-31T10:50:15.039Z,102654.61
2019-03-31T10:52:43.074Z,102658.57
2019-03-31T10:55:11.111Z,102656.82
2019-03-31T10:57:39.159Z,102660.31
2019-03-31T11:00:07.379Z,102658.55
2019-03-31T11:02:35.402Z,102666.45
2019-03-31T11:05:03.895Z,102665.98
2019-03-31T11:07:31.920Z,102659.84
2019-03-31T11:09:59.952Z,102657.21
2019-03-31T11:12:28.010Z,102667.73
2019-03-31T11:14:56.045Z,102666.42
2019-03-31T11:17:24.131Z,102666.87
2019-03-31T11:19:52.133Z,102665.13
2019-03-31T11:22:42.609Z,102673.88
2019-03-31T11:25:20.628Z,102668.20
2019-03-31T11:27:43.689Z,102669.48
2019-03-31T11:30:10.583Z,102681.33
2019-03-31T11:32:38.590Z,102680.87
2019-03-31T11:35:06.808Z,102682.62
2019-03-31T11:37:34.826Z,102683.08
2019-03-31T11:40:02.869Z,102681.34
2019-03-31T11:42:30.960Z,102680.91
2019-03-31T11:44:58.994Z,102682.66
2019-03-31T11:47:27.024Z,102685.72
2019-03-31T11:49:55.092Z,102683.94
2019-03-31T11:52:23.148Z,102683.95
2019-03-31T11:54:51.180Z,102686.58
2019-03-31T11:57:19.393Z,102682.17
2019-03-31T11:59:49.689Z,102689.17
2019-03-31T12:02:26.969Z,102695.33
2019-03-31T12:04:47.337Z,102695.33
2019-03-31T12:07:27.384Z,102697.94
2019-03-31T12:09:45.327Z,102690.47
2019-03-31T12:12:13.349Z,102698.37
2019-03-31T12:14:41.397Z,102695.30
2019-03-31T12:17:09.438Z,102692.21
2019-03-31T12:19:37.488Z,102695.77
2019-03-31T12:22:05.547Z,102697.09
2019-03-31T12:24:33.588Z,102708.05
2019-03-31T12:27:01.710Z,102711.97
2019-03-31T12:29:29.731Z,102704.06
2019-03-31T12:31:57.758Z,102711.54
2019-03-31T12:34:25.820Z,102707.13
2019-03-31T12:36:53.915Z,102709.77
2019-03-31T12:39:21.982Z,102707.59
2019-03-31T12:41:49.999Z,102697.91
2019-03-31T12:44:18.100Z,102703.60
2019-03-31T12:46:46.091Z,102698.30
2019-03-31T12:49:14.184Z,102694.77
2019-03-31T12:51:42.206Z,102690.81
2019-03-31T12:54:10.237Z,102694.77
2019-03-31T12:56:38.313Z,102693.03
2019-03-31T12:59:06.370Z,102696.09
2019-03-31T13:01:34.428Z,102694.34
2019-03-31T13:04:02.468Z,102691.70
2019-03-31T13:06:30.483Z,102691.25
2019-03-31T13:08:58.560Z,102689.92
2019-03-31T13:11:26.605Z,102696.94
2019-03-31T13:13:54.644Z,102693.02
2019-03-31T13:16:22.811Z,102697.36
2019-03-31T13:18:50.848Z,102677.59
2019-03-31T13:21:18.963Z,102691.62
2019-03-31T13:23:47.000Z,102691.19
2019-03-31T13:26:15.268Z,102688.52
2019-03-31T13:28:43.367Z,102698.16
2019-03-31T13:31:11.391Z,102692.88
2019-03-31T13:33:39.422Z,102689.77
2019-03-31T13:36:07.504Z,102689.75
2019-03-31T13:38:35.538Z,102683.55
2019-03-31T13:41:03.569Z,102694.39
2019-03-31T13:43:31.610Z,102696.88
2019-03-31T13:46:00.292Z,102692.39
2019-03-31T13:48:28.511Z,102691.39
2019-03-31T13:50:56.522Z,102682.50
2019-03-31T13:53:24.528Z,102691.16
2019-03-31T13:55:52.705Z,102687.93
2019-03-31T13:58:22.948Z,102690.06
2019-03-31T14:00:50.848Z,102688.28
2019-03-31T14:03:18.836Z,102690.56
2019-03-31T14:05:46.833Z,102693.42
2019-03-31T14:08:25.705Z,102689.62
2019-03-31T14:10:44.837Z,102689.75
2019-03-31T14:13:12.886Z,102700.81
2019-03-31T14:15:40.910Z,102703.94
2019-03-31T14:18:08.925Z,102700.83
2019-03-31T14:20:37.011Z,102706.04
2019-03-31T14:23:05.038Z,102702.05
2019-03-31T14:25:33.044Z,102698.43
2019-03-31T14:28:01.100Z,102703.22
2019-03-31T14:30:29.146Z,102706.56
2019-03-31T14:32:57.213Z,102704.05
2019-03-31T14:35:25.260Z,102694.80
2019-03-31T14:37:53.341Z,102694.84
2019-03-31T14:40:21.346Z,102692.67
2019-03-31T14:42:49.379Z,102692.29
2019-03-31T14:45:37.168Z,102701.45
2019-03-31T14:48:05.486Z,102698.04
2019-03-31T14:50:37.653Z,102699.95
2019-03-31T14:53:05.767Z,102697.92
2019-03-31T14:55:33.836Z,102702.65
2019-03-31T14:58:01.927Z,102697.95
2019-03-31T15:00:30.052Z,102697.13
2019-03-31T15:02:58.101Z,102696.28
2019-03-31T15:05:26.157Z,102698.31
2019-03-31T15:07:54.163Z,102701.10
2019-03-31T15:10:22.351Z,102694.70
2019-03-31T15:12:50.362Z,102696.94
2019-03-31T15:15:18.411Z,102697.00
2019-03-31T15:17:46.468Z,102698.39
2019-03-31T15:20:14.501Z,102704.11
2019-03-31T15:22:42.771Z,102704.49
2019-03-31T15:25:10.795Z,102708.50
2019-03-31T15:27:38.834Z,102705.13
2019-03-31T15:30:07.058Z,102703.86
2019-03-31T15:32:35.063Z,102706.98
2019-03-31T15:35:03.185Z,102704.23
2019-03-31T15:37:31.251Z,102701.08
2019-03-31T15:39:59.265Z,102708.50
2019-03-31T15:42:27.287Z,102709.67
2019-03-31T15:44:55.437Z,102707.74
2019-03-31T15:47:23.470Z,102709.34
2019-03-31T15:49:51.482Z,102708.94
2019-03-31T15:52:19.562Z,102711.89
2019-03-31T15:54:47.584Z,102708.88
2019-03-31T15:57:15.610Z,102705.41
2019-03-31T15:59:49.447Z,102704.79
2019-03-31T16:02:17.756Z,102704.91
2019-03-31T16:04:45.766Z,102704.52
2019-03-31T16:07:13.781Z,102697.54
2019-03-31T16:09:41.279Z,102704.69
2019-03-31T16:12:08.751Z,102702.53
2019-03-31T16:14:36.245Z,102706.57
2019-03-31T16:17:03.731Z,102709.69
2019-03-31T16:19:31.274Z,102706.27
2019-03-31T16:21:58.734Z,102702.31
2019-03-31T16:24:41.104Z,102702.37
2019-03-31T16:27:08.640Z,102702.48
2019-03-31T16:29:36.142Z,102706.23
2019-03-31T16:32:03.768Z,102702.90
2019-03-31T16:34:31.254Z,102710.16
2019-03-31T16:36:58.746Z,102710.84
2019-03-31T16:39:36.893Z,102705.34
2019-03-31T16:41:55.718Z,102711.78
2019-03-31T16:44:23.198Z,102719.91
2019-03-31T16:46:50.700Z,102716.57
2019-03-31T16:49:18.223Z,102710.10
2019-03-31T16:51:45.694Z,102711.59
2019-03-31T16:54:13.181Z,102714.33
2019-03-31T16:56:40.671Z,102719.70
2019-03-31T16:59:08.237Z,102718.08
2019-03-31T17:01:35.709Z,102717.76
2019-03-31T17:04:03.346Z,102725.37
2019-03-31T17:06:30.812Z,102717.14
2019-03-31T17:08:58.274Z,102721.59
2019-03-31T17:11:25.766Z,102730.93
2019-03-31T17:13:53.207Z,102727.89
2019-03-31T17:16:20.769Z,102727.06
2019-03-31T17:18:48.213Z,102728.38
2019-03-31T17:21:15.705Z,102727.99
2019-03-31T17:23:43.195Z,102732.03
2019-03-31T17:26:10.785Z,102728.14
2019-03-31T17:28:38.315Z,102733.10
2019-03-31T17:31:05.776Z,102736.72
2019-03-31T17:33:33.243Z,102736.83
2019-03-31T17:36:00.729Z,102741.34
2019-03-31T17:38:28.196Z,102744.55
2019-03-31T17:40:55.758Z,102744.62
2019-03-31T17:43:23.246Z,102744.28
2019-03-31T17:45:50.738Z,102744.36
2019-03-31T17:48:18.362Z,102746.18
2019-03-31T17:50:45.849Z,102737.91
2019-03-31T17:53:13.331Z,102745.45
2019-03-31T17:55:40.886Z,102742.88
2019-03-31T17:58:08.437Z,102743.75
2019-03-31T18:00:35.938Z,102742.48
2019-03-31T18:03:03.434Z,102751.75
2019-03-31T18:05:30.994Z,102747.41
2019-03-31T18:07:58.463Z,102744.78
2019-03-31T18:10:25.958Z,102753.58
2019-03-31T18:12:53.516Z,102751.87
2019-03-31T18:15:21.013Z,102754.53
2019-03-31T18:17:48.606Z,102754.99
2019-03-31T18:20:16.097Z,102757.20
2019-03-31T18:22:43.568Z,102760.70
2019-03-31T18:25:11.121Z,102762.88
2019-03-31T18:27:39.177Z,102763.78
2019-03-31T18:30:06.762Z,102769.92
2019-03-31T18:32:34.272Z,102774.33
2019-03-31T18:35:01.813Z,102776.52
2019-03-31T18:37:29.374Z,102776.08
2019-03-31T18:39:56.927Z,102777.84
2019-03-31T18:42:24.463Z,102779.60
2019-03-31T18:44:52.291Z,102783.96
2019-03-31T18:47:19.862Z,102784.41
2019-03-31T18:49:47.352Z,102788.81
2019-03-31T18:52:14.923Z,102794.94
2019-03-31T18:55:01.964Z,102789.66
2019-03-31T18:58:07.176Z,102797.56
2019-03-31T19:01:05.992Z,102794.92
2019-03-31T19:03:53.098Z,102792.30
2019-03-31T19:06:42.641Z,102787.88
2019-03-31T19:09:48.187Z,102797.11
2019-03-31T19:12:47.150Z,102801.46
2019-03-31T19:15:26.116Z,102803.61
2019-03-31T19:18:31.515Z,102802.31
2019-03-31T19:21:27.647Z,102810.20
2019-03-31T19:24:20.923Z,102809.28
2019-03-31T19:27:05.979Z,102813.24
2019-03-31T19:29:53.042Z,102814.97
2019-03-31T19:32:36.224Z,102812.36
2019-03-31T19:35:35.789Z,102812.77
2019-03-31T19:38:25.734Z,102813.20
2019-03-31T19:41:18.432Z,102814.50
2019-03-31T19:44:14.147Z,102812.33
2019-03-31T19:46:56.864Z,102811.43
2019-03-31T19:49:52.951Z,102820.17
2019-03-31T19:52:42.806Z,102828.93
2019-03-31T19:55:48.251Z,102826.72
2019-03-31T19:58:43.753Z,102831.99
2019-03-31T20:01:42.567Z,102836.37
2019-03-31T20:04:22.682Z,102844.23
2019-03-31T20:07:15.682Z,102842.91
2019-03-31T20:09:49.249Z,102847.30
2019-03-31T20:12:45.571Z,102845.54
2019-03-31T20:15:35.598Z,102846.87
2019-03-31T20:18:20.979Z,102849.05
2019-03-31T20:20:58.127Z,102850.77
2019-03-31T20:23:30.465Z,102856.02
2019-03-31T20:26:08.914Z,102860.84
2019-03-31T20:28:58.739Z,102856.02
2019-03-31T20:31:51.869Z,102849.84
2019-03-31T20:34:41.931Z,102852.47
2019-03-31T20:37:23.141Z,102851.56
2019-03-31T20:40:22.184Z,102851.13
2019-03-31T20:43:09.186Z,102849.38
2019-03-31T20:45:36.746Z,102856.36
2019-03-31T20:48:04.292Z,102853.72
2019-03-31T20:50:31.814Z,102852.41
2019-03-31T20:52:59.338Z,102852.83
2019-03-31T20:55:26.861Z,102856.79
2019-03-31T20:57:54.399Z,102848.02
2019-03-31T21:00:21.869Z,102862.02
2019-03-31T21:02:49.366Z,102858.06
2019-03-31T21:05:16.883Z,102862.00
2019-03-31T21:07:44.371Z,102866.35
2019-03-31T21:10:11.914Z,102869.84
2019-03-31T21:12:39.379Z,102869.41
2019-03-31T21:15:07.158Z,102864.58
2019-03-31T21:17:34.691Z,102868.01
2019-03-31T21:20:02.201Z,102870.20
2019-03-31T21:22:29.688Z,102877.64
2019-03-31T21:24:57.172Z,102879.83
2019-03-31T21:27:24.683Z,102874.97
2019-03-31T21:29:52.151Z,102871.03
2019-03-31T21:32:19.694Z,102878.48
2019-03-31T21:34:47.228Z,102878.03
2019-03-31T21:37:14.777Z,102881.08
2019-03-31T21:39:42.312Z,102877.58
2019-03-31T21:42:09.782Z,102877.56
2019-03-31T21:44:37.302Z,102881.48
2019-03-31T21:47:04.795Z,102881.05
2019-03-31T21:49:32.340Z,102881.47
2019-03-31T21:51:59.911Z,102882.76
2019-03-31T21:54:27.492Z,102881.01
2019-03-31T21:56:54.976Z,102882.34
2019-03-31T21:59:22.476Z,102884.48
2019-03-31T22:01:49.959Z,102882.30
2019-03-31T22:04:17.587Z,102885.77
2019-03-31T22:06:45.062Z,102880.98
2019-03-31T22:09:12.547Z,102880.52
2019-03-31T22:11:40.134Z,102873.47
2019-03-31T22:14:10.349Z,102878.73
2019-03-31T22:16:37.019Z,102877.41
2019-03-31T22:19:04.676Z,102877.41
2019-03-31T22:21:32.203Z,102885.72
2019-03-31T22:23:59.694Z,102879.59
2019-03-31T22:26:27.198Z,102878.27
2019-03-31T22:28:54.817Z,102881.30
2019-03-31T22:31:22.404Z,102881.30
2019-03-31T22:33:49.861Z,102881.70
2019-03-31T22:36:24.314Z,102885.61
2019-03-31T22:38:52.194Z,102888.70
2019-03-31T22:41:19.690Z,102890.45
2019-03-31T22:43:47.901Z,102893.95
2019-03-31T22:46:15.494Z,102895.66
2019-03-31T22:48:42.985Z,102892.17
2019-03-31T22:51:10.493Z,102888.25
2019-03-31T22:53:38.238Z,102886.45
2019-03-31T22:56:05.790Z,102891.25
2019-03-31T22:58:33.294Z,102895.64
2019-03-31T23:01:00.920Z,102895.63
2019-03-31T23:03:28.406Z,102891.69
2019-03-31T23:05:56.219Z,102890.35
2019-03-31T23:08:23.709Z,102892.06
2019-03-31T23:10:51.360Z,102893.40
2019-03-31T23:13:18.860Z,102885.96
2019-03-31T23:15:46.356Z,102886.83
2019-03-31T23:18:13.890Z,102885.05
2019-03-31T23:20:41.368Z,102892.06
2019-03-31T23:23:08.910Z,102890.31
2019-03-31T23:25:36.387Z,102888.51
2019-03-31T23:28:03.884Z,102895.08
2019-03-31T23:30:31.404Z,102889.40
2019-03-31T23:32:58.889Z,102888.92
2019-03-31T23:35:26.419Z,102887.59
2019-03-31T23:37:54.058Z,102888.03
2019-03-31T23:40:21.525Z,102882.36
2019-03-31T23:42:49.030Z,102878.01
2019-03-31T23:45:16.593Z,102885.84
2019-03-31T23:47:44.084Z,102884.51
2019-03-31T23:50:11.563Z,102888.44
2019-03-31T23:52:39.098Z,102884.96
2019-03-31T23:55:06.611Z,102891.05
2019-03-31T23:57:41.033Z,102887.58
